sensor_id;sensor_type;location;lat;lon;timestamp;pressure;altitude;pressure_sealevel;temperature;humidity
10470;BME280;5282;47.052;15.458;2022-09-06T00:01:00;98012.00;;;18.21;100.00
10470;BME280;5282;47.052;15.458;2022-09-06T00:03:29;98005.75;;;18.21;100.00
10470;BME280;5282;47.052;15.458;2022-09-06T00:05:55;98013.47;;;18.24;100.00
10470;BME280;5282;47.052;15.458;2022-09-06T00:08:22;98009.94;;;18.23;100.00
10470;BME280;5282;47.052;15.458;2022-09-06T00:10:56;98008.47;;;18.21;100.00
10470;BME280;5282;47.052;15.458;2022-09-06T00:13:25;98004.88;;;18.20;100.00
10470;BME280;5282;47.052;15.458;2022-09-06T00:15:53;98007.78;;;18.05;100.00
10470;BME280;5282;47.052;15.458;2022-09-06T00:18:21;98005.69;;;18.07;100.00
10470;BME280;5282;47.052;15.458;2022-09-06T00:20:48;98013.66;;;18.09;100.00
10470;BME280;5282;47.052;15.458;2022-09-06T00:23:15;98016.19;;;18.10;100.00
10470;BME280;5282;47.052;15.458;2022-09-06T00:25:45;98008.84;;;18.11;100.00
10470;BME280;5282;47.052;15.458;2022-09-06T00:28:14;98003.78;;;18.01;100.00
10470;BME280;5282;47.052;15.458;2022-09-06T00:30:42;98002.75;;;18.09;100.00
10470;BME280;5282;47.052;15.458;2022-09-06T00:33:10;98015.31;;;18.03;100.00
10470;BME280;5282;47.052;15.458;2022-09-06T00:35:37;98009.97;;;17.88;100.00
10470;BME280;5282;47.052;15.458;2022-09-06T00:38:03;98016.19;;;17.68;100.00
10470;BME280;5282;47.052;15.458;2022-09-06T00:40:33;98018.06;;;17.68;100.00
10470;BME280;5282;47.052;15.458;2022-09-06T00:43:00;98013.44;;;17.62;100.00
10470;BME280;5282;47.052;15.458;2022-09-06T00:45:29;98009.03;;;17.61;100.00
10470;BME280;5282;47.052;15.458;2022-09-06T00:48:00;98003.22;;;17.70;100.00
10470;BME280;5282;47.052;15.458;2022-09-06T00:50:28;97997.22;;;17.88;100.00
10470;BME280;5282;47.052;15.458;2022-09-06T00:52:55;98001.84;;;17.95;100.00
10470;BME280;5282;47.052;15.458;2022-09-06T00:55:25;97997.91;;;17.97;100.00
10470;BME280;5282;47.052;15.458;2022-09-06T00:57:54;97988.59;;;17.85;100.00
10470;BME280;5282;47.052;15.458;2022-09-06T01:00:21;97991.25;;;17.65;100.00
10470;BME280;5282;47.052;15.458;2022-09-06T01:02:49;97985.56;;;17.60;100.00
10470;BME280;5282;47.052;15.458;2022-09-06T01:05:19;97992.69;;;17.61;100.00
10470;BME280;5282;47.052;15.458;2022-09-06T01:08:00;97984.44;;;17.47;100.00
10470;BME280;5282;47.052;15.458;2022-09-06T01:10:40;97981.31;;;17.50;100.00
10470;BME280;5282;47.052;15.458;2022-09-06T01:13:21;97981.50;;;17.49;100.00
10470;BME280;5282;47.052;15.458;2022-09-06T01:15:58;97977.31;;;17.46;100.00
10470;BME280;5282;47.052;15.458;2022-09-06T01:18:49;97979.41;;;17.44;100.00
10470;BME280;5282;47.052;15.458;2022-09-06T01:21:35;97976.25;;;17.40;100.00
10470;BME280;5282;47.052;15.458;2022-09-06T01:27:37;97971.16;;;17.66;100.00
10470;BME280;5282;47.052;15.458;2022-09-06T01:30:12;97958.59;;;17.71;100.00
10470;BME280;5282;47.052;15.458;2022-09-06T01:32:46;97952.97;;;17.80;100.00
10470;BME280;5282;47.052;15.458;2022-09-06T01:35:23;97953.63;;;17.82;100.00
10470;BME280;5282;47.052;15.458;2022-09-06T01:37:53;97952.34;;;17.84;100.00
10470;BME280;5282;47.052;15.458;2022-09-06T01:40:22;97946.25;;;17.76;100.00
10470;BME280;5282;47.052;15.458;2022-09-06T01:42:52;97956.31;;;17.75;100.00
10470;BME280;5282;47.052;15.458;2022-09-06T01:45:22;97950.88;;;17.75;100.00
10470;BME280;5282;47.052;15.458;2022-09-06T01:48:01;97940.78;;;17.69;100.00
10470;BME280;5282;47.052;15.458;2022-09-06T01:50:46;97950.75;;;17.48;100.00
10470;BME280;5282;47.052;15.458;2022-09-06T01:53:35;97949.31;;;17.52;100.00
10470;BME280;5282;47.052;15.458;2022-09-06T01:56:16;97946.81;;;17.57;100.00
10470;BME280;5282;47.052;15.458;2022-09-06T01:59:05;97949.09;;;17.54;100.00
10470;BME280;5282;47.052;15.458;2022-09-06T02:01:40;97944.25;;;17.49;100.00
10470;BME280;5282;47.052;15.458;2022-09-06T02:04:19;97949.06;;;17.47;100.00
10470;BME280;5282;47.052;15.458;2022-09-06T02:06:51;97949.63;;;17.36;100.00
10470;BME280;5282;47.052;15.458;2022-09-06T02:09:22;97956.34;;;17.40;100.00
10470;BME280;5282;47.052;15.458;2022-09-06T02:11:54;97948.84;;;17.42;100.00
10470;BME280;5282;47.052;15.458;2022-09-06T02:14:29;97939.41;;;17.45;100.00
10470;BME280;5282;47.052;15.458;2022-09-06T02:16:58;97942.53;;;17.41;100.00
10470;BME280;5282;47.052;15.458;2022-09-06T02:19:31;97938.66;;;17.22;100.00
10470;BME280;5282;47.052;15.458;2022-09-06T02:22:04;97931.44;;;17.01;100.00
10470;BME280;5282;47.052;15.458;2022-09-06T02:24:34;97926.47;;;17.11;100.00
10470;BME280;5282;47.052;15.458;2022-09-06T02:27:04;97933.22;;;17.22;100.00
10470;BME280;5282;47.052;15.458;2022-09-06T02:29:35;97934.25;;;17.21;100.00
10470;BME280;5282;47.052;15.458;2022-09-06T02:32:08;97935.72;;;17.17;100.00
10470;BME280;5282;47.052;15.458;2022-09-06T02:34:38;97931.84;;;16.98;100.00
10470;BME280;5282;47.052;15.458;2022-09-06T02:37:06;97929.09;;;16.70;100.00
10470;BME280;5282;47.052;15.458;2022-09-06T02:39:37;97934.22;;;16.58;100.00
10470;BME280;5282;47.052;15.458;2022-09-06T02:42:05;97939.47;;;16.59;100.00
10470;BME280;5282;47.052;15.458;2022-09-06T02:44:32;97934.09;;;16.66;100.00
10470;BME280;5282;47.052;15.458;2022-09-06T02:47:01;97932.13;;;16.88;100.00
10470;BME280;5282;47.052;15.458;2022-09-06T02:49:28;97928.38;;;16.89;100.00
10470;BME280;5282;47.052;15.458;2022-09-06T02:51:55;97924.06;;;16.95;100.00
10470;BME280;5282;47.052;15.458;2022-09-06T02:54:23;97927.50;;;16.82;100.00
10470;BME280;5282;47.052;15.458;2022-09-06T02:56:51;97925.19;;;16.79;100.00
10470;BME280;5282;47.052;15.458;2022-09-06T02:59:18;97935.50;;;16.90;100.00
10470;BME280;5282;47.052;15.458;2022-09-06T03:01:45;97930.72;;;16.92;100.00
10470;BME280;5282;47.052;15.458;2022-09-06T03:04:13;97924.25;;;16.93;100.00
10470;BME280;5282;47.052;15.458;2022-09-06T03:06:41;97931.09;;;16.89;100.00
10470;BME280;5282;47.052;15.458;2022-09-06T03:09:08;97929.16;;;16.76;100.00
10470;BME280;5282;47.052;15.458;2022-09-06T03:11:36;97926.47;;;16.83;100.00
10470;BME280;5282;47.052;15.458;2022-09-06T03:14:03;97919.19;;;16.62;100.00
10470;BME280;5282;47.052;15.458;2022-09-06T03:16:30;97930.00;;;16.55;100.00
10470;BME280;5282;47.052;15.458;2022-09-06T03:18:57;97933.53;;;16.49;100.00
10470;BME280;5282;47.052;15.458;2022-09-06T03:21:25;97927.63;;;16.67;100.00
10470;BME280;5282;47.052;15.458;2022-09-06T03:23:55;97921.97;;;16.69;100.00
10470;BME280;5282;47.052;15.458;2022-09-06T03:26:24;97924.53;;;16.77;100.00
10470;BME280;5282;47.052;15.458;2022-09-06T03:28:51;97924.34;;;16.78;100.00
10470;BME280;5282;47.052;15.458;2022-09-06T03:31:20;97917.78;;;16.66;100.00
10470;BME280;5282;47.052;15.458;2022-09-06T03:33:48;97918.16;;;16.63;100.00
10470;BME280;5282;47.052;15.458;2022-09-06T03:36:15;97913.31;;;16.58;100.00
10470;BME280;5282;47.052;15.458;2022-09-06T03:38:44;97918.59;;;16.66;100.00
10470;BME280;5282;47.052;15.458;2022-09-06T03:41:11;97924.03;;;16.66;100.00
10470;BME280;5282;47.052;15.458;2022-09-06T03:43:38;97919.84;;;16.64;100.00
10470;BME280;5282;47.052;15.458;2022-09-06T03:46:05;97911.88;;;16.62;100.00
10470;BME280;5282;47.052;15.458;2022-09-06T03:48:32;97910.22;;;16.61;100.00
10470;BME280;5282;47.052;15.458;2022-09-06T03:51:00;97912.22;;;16.53;100.00
10470;BME280;5282;47.052;15.458;2022-09-06T03:53:27;97914.00;;;16.39;100.00
10470;BME280;5282;47.052;15.458;2022-09-06T03:55:56;97911.84;;;16.34;100.00
10470;BME280;5282;47.052;15.458;2022-09-06T03:58:29;97913.59;;;16.42;100.00
10470;BME280;5282;47.052;15.458;2022-09-06T04:01:01;97913.22;;;16.45;100.00
10470;BME280;5282;47.052;15.458;2022-09-06T04:03:29;97918.63;;;16.45;100.00
10470;BME280;5282;47.052;15.458;2022-09-06T04:05:56;97915.91;;;16.45;100.00
10470;BME280;5282;47.052;15.458;2022-09-06T04:08:23;97918.38;;;16.40;100.00
10470;BME280;5282;47.052;15.458;2022-09-06T04:10:52;97918.59;;;16.38;100.00
10470;BME280;5282;47.052;15.458;2022-09-06T04:13:20;97921.88;;;16.33;100.00
10470;BME280;5282;47.052;15.458;2022-09-06T04:15:49;97921.69;;;16.35;100.00
10470;BME280;5282;47.052;15.458;2022-09-06T04:18:19;97919.56;;;16.30;100.00
10470;BME280;5282;47.052;15.458;2022-09-06T04:20:53;97926.50;;;16.33;100.00
10470;BME280;5282;47.052;15.458;2022-09-06T04:23:22;97923.19;;;16.38;100.00
10470;BME280;5282;47.052;15.458;2022-09-06T04:25:50;97917.09;;;16.35;100.00
10470;BME280;5282;47.052;15.458;2022-09-06T04:28:18;97918.97;;;16.35;100.00
10470;BME280;5282;47.052;15.458;2022-09-06T04:30:52;97915.63;;;16.33;100.00
10470;BME280;5282;47.052;15.458;2022-09-06T04:33:20;97903.69;;;16.34;100.00
10470;BME280;5282;47.052;15.458;2022-09-06T04:35:51;97899.13;;;16.34;100.00
10470;BME280;5282;47.052;15.458;2022-09-06T04:38:19;97906.63;;;16.32;100.00
10470;BME280;5282;47.052;15.458;2022-09-06T04:40:45;97906.63;;;16.32;100.00
10470;BME280;5282;47.052;15.458;2022-09-06T04:43:13;97909.97;;;16.34;100.00
10470;BME280;5282;47.052;15.458;2022-09-06T04:45:43;97905.06;;;16.23;100.00
10470;BME280;5282;47.052;15.458;2022-09-06T04:48:13;97905.81;;;16.10;100.00
10470;BME280;5282;47.052;15.458;2022-09-06T04:50:41;97901.25;;;16.17;100.00
10470;BME280;5282;47.052;15.458;2022-09-06T04:53:10;97906.94;;;16.23;100.00
10470;BME280;5282;47.052;15.458;2022-09-06T04:55:37;97903.47;;;16.29;100.00
10470;BME280;5282;47.052;15.458;2022-09-06T04:58:05;97914.38;;;16.35;100.00
10470;BME280;5282;47.052;15.458;2022-09-06T05:00:33;97918.19;;;16.41;100.00
10470;BME280;5282;47.052;15.458;2022-09-06T05:03:01;97915.66;;;16.40;100.00
10470;BME280;5282;47.052;15.458;2022-09-06T05:05:29;97905.47;;;16.20;100.00
10470;BME280;5282;47.052;15.458;2022-09-06T05:07:57;97918.22;;;15.98;100.00
10470;BME280;5282;47.052;15.458;2022-09-06T05:10:25;97924.78;;;15.88;100.00
10470;BME280;5282;47.052;15.458;2022-09-06T05:12:53;97936.13;;;15.92;100.00
10470;BME280;5282;47.052;15.458;2022-09-06T05:15:21;97925.66;;;16.11;100.00
10470;BME280;5282;47.052;15.458;2022-09-06T05:17:51;97926.44;;;16.26;100.00
10470;BME280;5282;47.052;15.458;2022-09-06T05:20:18;97927.59;;;16.39;100.00
10470;BME280;5282;47.052;15.458;2022-09-06T05:22:52;97926.78;;;16.45;100.00
10470;BME280;5282;47.052;15.458;2022-09-06T05:25:19;97922.00;;;16.47;100.00
10470;BME280;5282;47.052;15.458;2022-09-06T05:27:46;97920.38;;;16.53;100.00
10470;BME280;5282;47.052;15.458;2022-09-06T05:30:13;97920.22;;;16.61;100.00
10470;BME280;5282;47.052;15.458;2022-09-06T05:32:43;97931.97;;;16.61;100.00
10470;BME280;5282;47.052;15.458;2022-09-06T05:35:10;97927.28;;;16.55;100.00
10470;BME280;5282;47.052;15.458;2022-09-06T05:37:38;97927.69;;;16.52;100.00
10470;BME280;5282;47.052;15.458;2022-09-06T05:40:10;97928.31;;;16.54;100.00
10470;BME280;5282;47.052;15.458;2022-09-06T05:42:39;97925.63;;;16.54;100.00
10470;BME280;5282;47.052;15.458;2022-09-06T05:45:17;97926.47;;;16.55;100.00
10470;BME280;5282;47.052;15.458;2022-09-06T05:47:44;97926.47;;;16.55;100.00
10470;BME280;5282;47.052;15.458;2022-09-06T05:50:11;97927.28;;;16.55;100.00
10470;BME280;5282;47.052;15.458;2022-09-06T05:52:41;97915.00;;;16.59;100.00
10470;BME280;5282;47.052;15.458;2022-09-06T05:55:12;97918.53;;;16.60;100.00
10470;BME280;5282;47.052;15.458;2022-09-06T05:57:41;97916.53;;;16.69;100.00
10470;BME280;5282;47.052;15.458;2022-09-06T06:00:09;97916.16;;;16.72;100.00
10470;BME280;5282;47.052;15.458;2022-09-06T06:02:38;97921.59;;;16.72;100.00
10470;BME280;5282;47.052;15.458;2022-09-06T06:05:05;97921.16;;;16.75;100.00
10470;BME280;5282;47.052;15.458;2022-09-06T06:07:33;97925.38;;;16.77;100.00
10470;BME280;5282;47.052;15.458;2022-09-06T06:10:00;97931.25;;;16.81;100.00
10470;BME280;5282;47.052;15.458;2022-09-06T06:12:28;97925.44;;;16.84;100.00
10470;BME280;5282;47.052;15.458;2022-09-06T06:14:57;97923.69;;;16.76;100.00
10470;BME280;5282;47.052;15.458;2022-09-06T06:17:24;97923.88;;;16.75;100.00
10470;BME280;5282;47.052;15.458;2022-09-06T06:19:52;97920.63;;;16.86;100.00
10470;BME280;5282;47.052;15.458;2022-09-06T06:22:19;97915.06;;;16.94;100.00
10470;BME280;5282;47.052;15.458;2022-09-06T06:24:46;97916.75;;;16.95;100.00
10470;BME280;5282;47.052;15.458;2022-09-06T06:27:14;97926.44;;;17.05;100.00
10470;BME280;5282;47.052;15.458;2022-09-06T06:29:42;97922.47;;;17.07;100.00
10470;BME280;5282;47.052;15.458;2022-09-06T06:32:09;97918.75;;;17.15;100.00
10470;BME280;5282;47.052;15.458;2022-09-06T06:34:36;97908.09;;;17.20;100.00
10470;BME280;5282;47.052;15.458;2022-09-06T06:37:03;97908.56;;;17.24;100.00
10470;BME280;5282;47.052;15.458;2022-09-06T06:39:29;97902.69;;;17.27;100.00
10470;BME280;5282;47.052;15.458;2022-09-06T06:41:57;97908.81;;;17.36;100.00
10470;BME280;5282;47.052;15.458;2022-09-06T06:44:24;97910.75;;;17.42;100.00
10470;BME280;5282;47.052;15.458;2022-09-06T06:46:53;97913.47;;;17.49;100.00
10470;BME280;5282;47.052;15.458;2022-09-06T06:49:22;97909.69;;;17.50;100.00
10470;BME280;5282;47.052;15.458;2022-09-06T06:51:52;97911.63;;;17.56;100.00
10470;BME280;5282;47.052;15.458;2022-09-06T06:54:19;97913.53;;;17.62;100.00
10470;BME280;5282;47.052;15.458;2022-09-06T06:56:45;97916.69;;;17.66;100.00
10470;BME280;5282;47.052;15.458;2022-09-06T06:59:13;97914.19;;;17.71;100.00
10470;BME280;5282;47.052;15.458;2022-09-06T07:01:40;97914.22;;;17.78;100.00
10470;BME280;5282;47.052;15.458;2022-09-06T07:04:08;97915.47;;;17.75;100.00
10470;BME280;5282;47.052;15.458;2022-09-06T07:06:47;97914.44;;;17.89;100.00
10470;BME280;5282;47.052;15.458;2022-09-06T07:09:16;97914.69;;;17.95;100.00
10470;BME280;5282;47.052;15.458;2022-09-06T07:11:44;97917.22;;;18.03;100.00
10470;BME280;5282;47.052;15.458;2022-09-06T07:14:11;97919.16;;;18.09;100.00
10470;BME280;5282;47.052;15.458;2022-09-06T07:16:37;97917.25;;;18.16;100.00
10470;BME280;5282;47.052;15.458;2022-09-06T07:19:04;97920.41;;;18.20;100.00
10470;BME280;5282;47.052;15.458;2022-09-06T07:21:33;97910.56;;;18.26;100.00
10470;BME280;5282;47.052;15.458;2022-09-06T07:24:00;97917.06;;;18.31;100.00
10470;BME280;5282;47.052;15.458;2022-09-06T07:26:28;97916.66;;;18.41;100.00
10470;BME280;5282;47.052;15.458;2022-09-06T07:28:57;97919.59;;;18.46;100.00
10470;BME280;5282;47.052;15.458;2022-09-06T07:31:25;97913.94;;;18.55;100.00
10470;BME280;5282;47.052;15.458;2022-09-06T07:33:52;97907.63;;;18.54;100.00
10470;BME280;5282;47.052;15.458;2022-09-06T07:36:19;97908.50;;;18.68;100.00
10470;BME280;5282;47.052;15.458;2022-09-06T07:38:49;97907.22;;;18.77;100.00
10470;BME280;5282;47.052;15.458;2022-09-06T07:41:17;97919.38;;;18.81;100.00
10470;BME280;5282;47.052;15.458;2022-09-06T07:43:45;97920.00;;;18.90;100.00
10470;BME280;5282;47.052;15.458;2022-09-06T07:46:14;97924.22;;;19.00;100.00
10470;BME280;5282;47.052;15.458;2022-09-06T07:48:42;97919.16;;;19.10;100.00
10470;BME280;5282;47.052;15.458;2022-09-06T07:51:11;97920.81;;;19.24;100.00
10470;BME280;5282;47.052;15.458;2022-09-06T07:53:40;97909.25;;;19.29;100.00
10470;BME280;5282;47.052;15.458;2022-09-06T07:56:10;97913.59;;;19.43;100.00
10470;BME280;5282;47.052;15.458;2022-09-06T07:58:39;97910.59;;;19.58;100.00
10470;BME280;5282;47.052;15.458;2022-09-06T08:01:14;97911.22;;;19.67;100.00
10470;BME280;5282;47.052;15.458;2022-09-06T08:03:41;97907.00;;;19.71;100.00
10470;BME280;5282;47.052;15.458;2022-09-06T08:06:08;97906.09;;;19.78;100.00
10470;BME280;5282;47.052;15.458;2022-09-06T08:08:35;97910.72;;;19.84;100.00
10470;BME280;5282;47.052;15.458;2022-09-06T08:11:02;97906.69;;;19.93;100.00
10470;BME280;5282;47.052;15.458;2022-09-06T08:13:34;97913.53;;;20.09;100.00
10470;BME280;5282;47.052;15.458;2022-09-06T08:16:02;97908.50;;;20.06;100.00
10470;BME280;5282;47.052;15.458;2022-09-06T08:18:30;97913.94;;;20.13;100.00
10470;BME280;5282;47.052;15.458;2022-09-06T08:21:04;97908.44;;;20.19;100.00
10470;BME280;5282;47.052;15.458;2022-09-06T08:23:31;97909.00;;;20.28;100.00
10470;BME280;5282;47.052;15.458;2022-09-06T08:25:58;97904.97;;;20.31;100.00
10470;BME280;5282;47.052;15.458;2022-09-06T08:28:25;97903.66;;;20.40;100.00
10470;BME280;5282;47.052;15.458;2022-09-06T08:30:54;97906.50;;;20.52;100.00
10470;BME280;5282;47.052;15.458;2022-09-06T08:33:21;97905.56;;;20.65;100.00
10470;BME280;5282;47.052;15.458;2022-09-06T08:35:56;97898.31;;;20.77;100.00
10470;BME280;5282;47.052;15.458;2022-09-06T08:38:24;97900.25;;;20.95;100.00
10470;BME280;5282;47.052;15.458;2022-09-06T08:40:52;97895.16;;;20.99;100.00
10470;BME280;5282;47.052;15.458;2022-09-06T08:43:20;97895.09;;;21.06;100.00
10470;BME280;5282;47.052;15.458;2022-09-06T08:45:51;97899.66;;;21.12;100.00
10470;BME280;5282;47.052;15.458;2022-09-06T08:48:22;97891.16;;;21.20;100.00
10470;BME280;5282;47.052;15.458;2022-09-06T08:50:54;97893.97;;;21.32;100.00
10470;BME280;5282;47.052;15.458;2022-09-06T08:53:25;97893.34;;;21.49;100.00
10470;BME280;5282;47.052;15.458;2022-09-06T08:55:59;97890.25;;;21.64;100.00
10470;BME280;5282;47.052;15.458;2022-09-06T08:58:38;97893.88;;;21.76;100.00
10470;BME280;5282;47.052;15.458;2022-09-06T09:01:13;97886.56;;;21.88;100.00
10470;BME280;5282;47.052;15.458;2022-09-06T09:03:44;97888.50;;;22.00;100.00
10470;BME280;5282;47.052;15.458;2022-09-06T09:06:12;97880.03;;;22.01;100.00
10470;BME280;5282;47.052;15.458;2022-09-06T09:08:43;97880.88;;;22.02;100.00
10470;BME280;5282;47.052;15.458;2022-09-06T09:11:15;97886.31;;;22.32;100.00
10470;BME280;5282;47.052;15.458;2022-09-06T09:13:50;97884.31;;;22.40;100.00
10470;BME280;5282;47.052;15.458;2022-09-06T09:16:19;97881.84;;;22.50;100.00
10470;BME280;5282;47.052;15.458;2022-09-06T09:18:51;97874.34;;;22.57;100.00
10470;BME280;5282;47.052;15.458;2022-09-06T09:21:21;97866.59;;;22.66;100.00
10470;BME280;5282;47.052;15.458;2022-09-06T09:23:53;97870.03;;;22.73;100.00
10470;BME280;5282;47.052;15.458;2022-09-06T09:26:25;97870.91;;;22.74;100.00
10470;BME280;5282;47.052;15.458;2022-09-06T09:29:05;97864.31;;;22.63;100.00
10470;BME280;5282;47.052;15.458;2022-09-06T09:31:34;97861.72;;;22.68;100.00
10470;BME280;5282;47.052;15.458;2022-09-06T09:34:05;97863.59;;;22.91;100.00
10470;BME280;5282;47.052;15.458;2022-09-06T09:36:36;97864.44;;;23.04;100.00
10470;BME280;5282;47.052;15.458;2022-09-06T09:39:09;97859.66;;;23.11;100.00
10470;BME280;5282;47.052;15.458;2022-09-06T09:41:37;97857.03;;;23.28;100.00
10470;BME280;5282;47.052;15.458;2022-09-06T09:44:09;97847.34;;;23.37;100.00
10470;BME280;5282;47.052;15.458;2022-09-06T09:46:41;97844.88;;;23.53;100.00
10470;BME280;5282;47.052;15.458;2022-09-06T09:49:13;97846.13;;;23.74;100.00
10470;BME280;5282;47.052;15.458;2022-09-06T09:52:04;97841.84;;;23.66;100.00
10470;BME280;5282;47.052;15.458;2022-09-06T09:54:34;97834.59;;;23.89;100.00
10470;BME280;5282;47.052;15.458;2022-09-06T09:57:06;97830.97;;;23.71;100.00
10470;BME280;5282;47.052;15.458;2022-09-06T09:59:39;97828.72;;;23.97;100.00
10470;BME280;5282;47.052;15.458;2022-09-06T10:02:17;97822.75;;;24.34;100.00
10470;BME280;5282;47.052;15.458;2022-09-06T10:04:48;97828.75;;;24.48;100.00
10470;BME280;5282;47.052;15.458;2022-09-06T10:07:17;97823.16;;;24.60;100.00
10470;BME280;5282;47.052;15.458;2022-09-06T10:09:46;97821.81;;;24.63;100.00
10470;BME280;5282;47.052;15.458;2022-09-06T10:12:18;97815.38;;;24.57;100.00
10470;BME280;5282;47.052;15.458;2022-09-06T10:14:53;97812.91;;;24.73;100.00
10470;BME280;5282;47.052;15.458;2022-09-06T10:17:27;97805.56;;;24.44;100.00
10470;BME280;5282;47.052;15.458;2022-09-06T10:19:59;97803.41;;;24.80;100.00
10470;BME280;5282;47.052;15.458;2022-09-06T10:22:29;97809.13;;;25.18;100.00
10470;BME280;5282;47.052;15.458;2022-09-06T10:28:29;97817.03;;;25.37;100.00
10470;BME280;5282;47.052;15.458;2022-09-06T10:31:40;97818.16;;;25.14;100.00
10470;BME280;5282;47.052;15.458;2022-09-06T10:34:24;97807.47;;;25.39;98.23
10470;BME280;5282;47.052;15.458;2022-09-06T10:37:09;97812.44;;;25.65;94.59
10470;BME280;5282;47.052;15.458;2022-09-06T10:39:47;97813.78;;;25.40;90.80
10470;BME280;5282;47.052;15.458;2022-09-06T10:42:22;97817.38;;;25.18;96.38
10470;BME280;5282;47.052;15.458;2022-09-06T10:45:15;97808.00;;;25.86;94.23
10470;BME280;5282;47.052;15.458;2022-09-06T10:47:53;97806.34;;;26.17;91.61
10470;BME280;5282;47.052;15.458;2022-09-06T10:50:21;97800.09;;;26.22;86.21
10470;BME280;5282;47.052;15.458;2022-09-06T10:52:53;97811.72;;;26.02;87.98
10470;BME280;5282;47.052;15.458;2022-09-06T10:55:21;97804.81;;;26.70;90.02
10470;BME280;5282;47.052;15.458;2022-09-06T10:57:53;97809.38;;;26.48;88.10
10470;BME280;5282;47.052;15.458;2022-09-06T11:00:22;97800.97;;;26.33;84.04
10470;BME280;5282;47.052;15.458;2022-09-06T11:02:53;97801.09;;;26.86;83.70
10470;BME280;5282;47.052;15.458;2022-09-06T11:05:24;97796.03;;;27.26;85.09
10470;BME280;5282;47.052;15.458;2022-09-06T11:07:56;97796.03;;;27.26;78.27
10470;BME280;5282;47.052;15.458;2022-09-06T11:10:27;97798.28;;;27.29;80.28
10470;BME280;5282;47.052;15.458;2022-09-06T11:12:58;97788.47;;;27.01;77.00
10470;BME280;5282;47.052;15.458;2022-09-06T11:15:32;97780.88;;;27.34;77.89
10470;BME280;5282;47.052;15.458;2022-09-06T11:18:04;97775.88;;;27.25;76.07
10470;BME280;5282;47.052;15.458;2022-09-06T11:20:39;97781.22;;;27.48;73.61
10470;BME280;5282;47.052;15.458;2022-09-06T11:23:30;97770.38;;;27.36;75.05
10470;BME280;5282;47.052;15.458;2022-09-06T11:29:07;97773.31;;;28.18;75.60
10470;BME280;5282;47.052;15.458;2022-09-06T11:31:50;97769.75;;;28.33;71.98
10470;BME280;5282;47.052;15.458;2022-09-06T11:34:25;97765.88;;;28.24;75.25
10470;BME280;5282;47.052;15.458;2022-09-06T11:36:54;97773.06;;;28.46;74.75
10470;BME280;5282;47.052;15.458;2022-09-06T11:39:30;97764.97;;;28.65;70.01
10470;BME280;5282;47.052;15.458;2022-09-06T11:41:58;97757.28;;;28.21;64.20
10470;BME280;5282;47.052;15.458;2022-09-06T11:45:12;97756.97;;;27.91;71.30
10470;BME280;5282;47.052;15.458;2022-09-06T11:47:43;97752.00;;;28.40;65.71
10470;BME280;5282;47.052;15.458;2022-09-06T11:53:19;97749.22;;;28.40;64.40
10470;BME280;5282;47.052;15.458;2022-09-06T11:55:49;97754.44;;;28.67;67.00
10470;BME280;5282;47.052;15.458;2022-09-06T11:58:25;97745.50;;;29.01;63.21
10470;BME280;5282;47.052;15.458;2022-09-06T12:01:32;97744.03;;;29.19;63.86
10470;BME280;5282;47.052;15.458;2022-09-06T12:04:00;97740.19;;;29.15;61.15
10470;BME280;5282;47.052;15.458;2022-09-06T12:06:29;97732.06;;;28.58;66.49
10470;BME280;5282;47.052;15.458;2022-09-06T12:08:58;97727.31;;;28.69;64.75
10470;BME280;5282;47.052;15.458;2022-09-06T12:11:33;97726.31;;;29.20;66.23
10470;BME280;5282;47.052;15.458;2022-09-06T12:14:03;97726.25;;;29.31;60.69
10470;BME280;5282;47.052;15.458;2022-09-06T12:19:41;97713.91;;;29.07;61.70
10470;BME280;5282;47.052;15.458;2022-09-06T12:22:50;97716.13;;;29.05;66.15
10470;BME280;5282;47.052;15.458;2022-09-06T12:25:19;97717.91;;;29.41;61.25
10470;BME280;5282;47.052;15.458;2022-09-06T12:27:52;97715.97;;;28.76;64.87
10470;BME280;5282;47.052;15.458;2022-09-06T12:30:31;97713.19;;;28.60;62.87
10470;BME280;5282;47.052;15.458;2022-09-06T12:32:59;97700.47;;;28.54;63.09
10470;BME280;5282;47.052;15.458;2022-09-06T12:35:28;97697.13;;;28.68;64.88
10470;BME280;5282;47.052;15.458;2022-09-06T12:37:58;97693.88;;;27.93;63.22
10470;BME280;5282;47.052;15.458;2022-09-06T12:40:28;97683.94;;;27.97;65.75
10470;BME280;5282;47.052;15.458;2022-09-06T12:42:57;97693.66;;;28.15;65.13
10470;BME280;5282;47.052;15.458;2022-09-06T12:45:27;97681.97;;;28.39;64.85
10470;BME280;5282;47.052;15.458;2022-09-06T12:48:05;97694.41;;;28.52;64.85
10470;BME280;5282;47.052;15.458;2022-09-06T12:50:34;97680.81;;;28.61;66.51
10470;BME280;5282;47.052;15.458;2022-09-06T12:53:16;97680.84;;;28.51;66.21
10470;BME280;5282;47.052;15.458;2022-09-06T12:55:45;97678.84;;;28.77;62.36
10470;BME280;5282;47.052;15.458;2022-09-06T12:58:14;97675.78;;;28.78;61.95
10470;BME280;5282;47.052;15.458;2022-09-06T13:00:43;97675.34;;;28.35;64.36
10470;BME280;5282;47.052;15.458;2022-09-06T13:03:22;97672.28;;;28.42;60.98
10470;BME280;5282;47.052;15.458;2022-09-06T13:05:53;97669.28;;;28.12;64.30
10470;BME280;5282;47.052;15.458;2022-09-06T13:08:25;97672.31;;;28.26;63.29
10470;BME280;5282;47.052;15.458;2022-09-06T13:10:56;97666.25;;;28.09;61.48
10470;BME280;5282;47.052;15.458;2022-09-06T13:13:25;97663.94;;;28.52;58.84
10470;BME280;5282;47.052;15.458;2022-09-06T13:15:52;97667.78;;;28.67;57.43
10470;BME280;5282;47.052;15.458;2022-09-06T13:18:23;97670.59;;;28.51;62.74
10470;BME280;5282;47.052;15.458;2022-09-06T13:20:57;97667.22;;;28.59;62.40
10470;BME280;5282;47.052;15.458;2022-09-06T13:23:25;97660.31;;;28.72;64.48
10470;BME280;5282;47.052;15.458;2022-09-06T13:25:53;97665.56;;;28.69;62.98
10470;BME280;5282;47.052;15.458;2022-09-06T13:28:27;97656.19;;;28.49;62.36